Time;durP1;ratioP1;P1;durP2;ratioP2;P2;SDS_P1;SDS_P2;PMS_P1;PMS_P2;Temp;Humidity;BMP_temperature;BMP_pressure;BME280_temperature;BME280_humidity;BME280_pressure;Samples;Min_cycle;Max_cycle;Signal;HPM_P1;HPM_P2
2022/12/03 00:00:22;;;;;;;18.83;11.73;;;;;;;1.56;100.00;99535.84;5092144;28;20199;-79
2022/12/03 00:02:51;;;;;;;20.97;11.93;;;;;;;1.61;100.00;99535.72;5116545;27;20222;-79
2022/12/03 00:05:21;;;;;;;23.77;12.20;;;;;;;1.47;100.00;99530.81;5116876;27;20187;-79
2022/12/03 00:07:49;;;;;;;20.03;12.63;;;;;;;1.47;100.00;99523.00;5108363;28;20268;-79
2022/12/03 00:10:19;;;;;;;20.10;12.43;;;;;;;1.36;100.00;99525.84;5117854;27;20191;-79
2022/12/03 00:12:48;;;;;;;18.53;11.47;;;;;;;1.38;100.00;99528.41;5115436;28;20187;-78
2022/12/03 00:15:16;;;;;;;19.90;12.17;;;;;;;1.29;100.00;99519.00;5114407;28;20306;-79
2022/12/03 00:17:45;;;;;;;18.20;10.60;;;;;;;1.56;100.00;99528.03;5113073;28;20190;-79
2022/12/03 00:20:18;;;;;;;18.27;10.80;;;;;;;1.37;100.00;99532.75;5111219;28;20272;-79
2022/12/03 00:22:49;;;;;;;17.67;10.30;;;;;;;1.43;100.00;99523.94;5116485;28;20202;-79
2022/12/03 00:25:18;;;;;;;17.97;10.20;;;;;;;1.43;100.00;99526.53;5116195;28;20202;-80
2022/12/03 00:27:47;;;;;;;18.27;10.70;;;;;;;1.51;100.00;99521.16;5116237;28;20267;-79
2022/12/03 00:30:16;;;;;;;16.03;10.30;;;;;;;1.51;100.00;99514.19;5115497;28;20202;-79
2022/12/03 00:32:44;;;;;;;15.90;10.27;;;;;;;1.46;100.00;99523.03;5114200;27;20199;-79
2022/12/03 00:35:13;;;;;;;15.27;8.97;;;;;;;1.36;100.00;99518.00;5081297;28;20228;-79
2022/12/03 00:37:41;;;;;;;14.83;9.20;;;;;;;1.39;100.00;99517.94;5115352;28;20226;-79
2022/12/03 00:40:13;;;;;;;14.93;9.17;;;;;;;1.47;100.00;99519.53;5114655;28;20195;-79
2022/12/03 00:42:41;;;;;;;14.13;9.53;;;;;;;1.36;100.00;99517.16;5113175;27;20203;-79
2022/12/03 00:45:11;;;;;;;17.17;10.20;;;;;;;1.38;100.00;99516.22;5116347;28;20191;-79
2022/12/03 00:47:41;;;;;;;15.60;8.90;;;;;;;1.55;100.00;99510.66;5116387;27;20218;-79
2022/12/03 00:50:12;;;;;;;17.93;9.23;;;;;;;1.45;100.00;99519.56;5120145;27;20269;-79
2022/12/03 00:52:41;;;;;;;14.10;8.43;;;;;;;1.37;100.00;99514.50;5119898;28;20228;-79
2022/12/03 00:55:11;;;;;;;15.90;8.73;;;;;;;1.59;100.00;99512.28;5122375;28;20190;-79
2022/12/03 00:57:40;;;;;;;13.60;8.53;;;;;;;1.40;100.00;99517.03;5075412;28;20702;-79
2022/12/03 01:00:10;;;;;;;13.40;9.50;;;;;;;1.25;100.00;99516.47;5115800;28;20187;-79
2022/12/03 01:02:39;;;;;;;13.80;8.13;;;;;;;1.38;100.00;99516.22;5080549;28;20191;-79
2022/12/03 01:05:08;;;;;;;13.00;7.77;;;;;;;1.31;100.00;99509.41;5115598;28;20194;-79
2022/12/03 01:07:37;;;;;;;12.17;7.30;;;;;;;1.43;100.00;99508.28;5115655;28;20220;-79
2022/12/03 01:10:07;;;;;;;12.30;7.80;;;;;;;1.35;100.00;99507.56;5125578;28;20259;-79
2022/12/03 01:12:39;;;;;;;11.00;7.13;;;;;;;1.25;100.00;99503.44;5110292;28;20249;-79
2022/12/03 01:15:08;;;;;;;12.60;7.77;;;;;;;1.25;100.00;99509.50;5114346;28;20203;-79
2022/12/03 01:17:37;;;;;;;13.07;8.17;;;;;;;1.27;100.00;99507.75;5091811;28;20195;-79
2022/12/03 01:20:07;;;;;;;12.73;8.03;;;;;;;1.26;100.00;99508.66;5115708;28;20276;-79
2022/12/03 01:22:38;;;;;;;12.40;7.57;;;;;;;1.26;100.00;99513.00;5115695;28;20194;-79
2022/12/03 01:25:08;;;;;;;11.37;7.33;;;;;;;1.26;100.00;99513.00;5115506;28;20194;-79
2022/12/03 01:27:38;;;;;;;11.97;7.80;;;;;;;1.38;100.00;99513.59;5113946;28;20260;-79
2022/12/03 01:30:10;;;;;;;13.57;9.30;;;;;;;1.24;100.00;99515.63;5110641;28;20191;-79
2022/12/03 01:32:38;;;;;;;13.40;8.43;;;;;;;1.34;100.00;99506.72;5068372;28;20196;-79
2022/12/03 01:35:06;;;;;;;11.60;8.10;;;;;;;1.22;100.00;99512.19;5069478;28;20227;-78
2022/12/03 01:37:35;;;;;;;11.77;7.70;;;;;;;1.39;100.00;99512.72;5069962;28;20278;-79
2022/12/03 01:40:05;;;;;;;11.67;8.00;;;;;;;1.30;100.00;99507.69;5070628;28;20257;-79
2022/12/03 01:42:37;;;;;;;13.60;8.60;;;;;;;1.33;100.00;99501.53;5065352;28;20232;-78
2022/12/03 01:45:18;;;;;;;13.93;9.03;;;;;;;1.26;100.00;99502.56;5067920;28;20242;-79
2022/12/03 01:47:46;;;;;;;13.03;8.77;;;;;;;1.16;100.00;99501.91;5066435;28;20216;-79
2022/12/03 01:50:21;;;;;;;11.93;8.00;;;;;;;1.15;100.00;99503.63;5068046;28;20189;-79
2022/12/03 01:52:52;;;;;;;13.80;9.33;;;;;;;1.14;100.00;99508.88;5069528;28;20200;-79
2022/12/03 01:55:23;;;;;;;14.77;8.60;;;;;;;1.20;100.00;99507.91;5065861;28;20199;-79
2022/12/03 01:57:56;;;;;;;12.70;8.10;;;;;;;1.08;100.00;99509.03;5100176;28;20206;-79
2022/12/03 02:00:27;;;;;;;13.40;8.43;;;;;;;1.20;100.00;99505.31;5062943;28;20233;-79
2022/12/03 02:02:57;;;;;;;13.70;8.67;;;;;;;1.19;100.00;99508.81;5112627;28;20197;-78
2022/12/03 02:05:27;;;;;;;13.13;8.53;;;;;;;1.18;100.00;99512.31;5108093;28;20336;-78
2022/12/03 02:07:56;;;;;;;13.20;8.40;;;;;;;1.18;100.00;99512.31;5110685;28;20210;-79
2022/12/03 02:10:27;;;;;;;13.17;8.73;;;;;;;1.23;100.00;99513.06;5107294;28;20194;-79
2022/12/03 02:12:58;;;;;;;13.40;8.63;;;;;;;1.30;100.00;99515.50;5107954;28;20640;-79
2022/12/03 02:15:29;;;;;;;14.37;8.77;;;;;;;1.32;100.00;99515.47;5109735;28;20401;-78
2022/12/03 02:17:58;;;;;;;15.63;9.53;;;;;;;1.30;100.00;99514.66;5114427;28;20187;-79
2022/12/03 02:20:27;;;;;;;13.13;8.60;;;;;;;1.33;100.00;99511.97;5116900;27;20260;-79
2022/12/03 02:23:03;;;;;;;12.73;8.70;;;;;;;1.24;100.00;99513.00;5113405;28;20230;-79
2022/12/03 02:25:35;;;;;;;12.03;8.70;;;;;;;1.23;100.00;99510.44;5113249;28;20198;-79
2022/12/03 02:28:09;;;;;;;13.37;9.10;;;;;;;1.06;100.00;99513.38;5112126;28;20264;-79
2022/12/03 02:30:38;;;;;;;13.90;9.47;;;;;;;1.02;100.00;99519.56;5075541;28;20199;-79
2022/12/03 02:33:06;;;;;;;14.30;9.00;;;;;;;0.99;100.00;99519.63;5116730;27;20318;-79
2022/12/03 02:35:37;;;;;;;15.80;9.40;;;;;;;0.99;100.00;99509.19;5111843;28;20199;-78
2022/12/03 02:38:11;;;;;;;13.80;9.10;;;;;;;1.08;100.00;99517.72;5111402;28;20240;-78
2022/12/03 02:40:43;;;;;;;13.70;8.93;;;;;;;1.11;100.00;99511.56;5111618;28;20190;-79
2022/12/03 02:43:13;;;;;;;15.10;9.17;;;;;;;1.15;100.00;99513.19;5114388;28;20195;-79
2022/12/03 02:45:44;;;;;;;15.47;8.97;;;;;;;1.04;100.00;99518.63;5113857;28;20194;-79
2022/12/03 02:48:17;;;;;;;13.73;9.00;;;;;;;0.99;100.00;99512.66;5113777;28;20218;-79
2022/12/03 02:50:50;;;;;;;13.63;8.97;;;;;;;0.98;100.00;99513.56;5075126;28;20191;-79
2022/12/03 02:53:21;;;;;;;14.47;9.30;;;;;;;1.01;100.00;99508.28;5113626;28;20195;-79
2022/12/03 02:55:53;;;;;;;13.70;8.17;;;;;;;1.19;100.00;99516.63;5112504;28;20191;-79
2022/12/03 02:58:23;;;;;;;13.63;8.07;;;;;;;1.12;100.00;99523.72;5113758;28;20195;-79
2022/12/03 03:00:54;;;;;;;15.53;9.07;;;;;;;1.04;100.00;99516.03;5113411;28;20195;-78
2022/12/03 03:03:24;;;;;;;13.93;8.83;;;;;;;1.12;100.00;99513.28;5109125;28;20195;-79
2022/12/03 03:05:55;;;;;;;14.47;8.77;;;;;;;1.14;100.00;99511.50;5113345;28;20219;-79
2022/12/03 03:08:25;;;;;;;13.80;8.90;;;;;;;1.17;100.00;99511.44;5113769;28;20215;-79
2022/12/03 03:10:57;;;;;;;14.90;8.87;;;;;;;1.09;100.00;99509.00;5112501;28;20191;-79
2022/12/03 03:13:26;;;;;;;14.97;8.97;;;;;;;0.99;100.00;99517.88;5111978;28;20193;-79
2022/12/03 03:16:12;;;;;;;13.10;8.73;;;;;;;0.96;100.00;99510.09;5090351;28;20194;-79
2022/12/03 03:18:41;;;;;;;13.50;8.43;;;;;;;0.93;100.00;99514.53;5115445;27;20202;-79
2022/12/03 03:21:10;;;;;;;15.73;9.93;;;;;;;0.93;100.00;99512.78;5113348;28;20191;-79
2022/12/03 03:23:38;;;;;;;15.07;9.13;;;;;;;0.90;100.00;99506.78;4981855;28;20229;-78
2022/12/03 03:26:10;;;;;;;14.07;8.90;;;;;;;0.90;100.00;99504.16;5026824;28;20781;-79
2022/12/03 03:28:42;;;;;;;14.20;8.50;;;;;;;0.88;100.00;99503.34;5033094;28;20217;-79
2022/12/03 03:31:14;;;;;;;13.53;8.87;;;;;;;0.89;100.00;99505.06;5026203;28;20194;-78
2022/12/03 03:33:48;;;;;;;12.97;8.30;;;;;;;1.00;100.00;99503.09;5032620;28;20223;-79
2022/12/03 03:36:20;;;;;;;13.60;8.33;;;;;;;0.93;100.00;99499.75;5030608;28;20190;-79
2022/12/03 03:38:50;;;;;;;12.00;8.33;;;;;;;1.05;100.00;99490.81;5011631;28;20232;-79
2022/12/03 03:41:21;;;;;;;13.07;8.53;;;;;;;1.03;100.00;99496.06;5055376;28;20199;-79
2022/12/03 03:43:50;;;;;;;13.67;8.90;;;;;;;0.97;100.00;99495.34;5110916;28;20331;-79
2022/12/03 03:46:19;;;;;;;13.77;8.50;;;;;;;0.99;100.00;99501.38;5047790;28;20246;-79
2022/12/03 03:48:48;;;;;;;13.97;8.33;;;;;;;1.01;100.00;99491.78;4990917;28;20250;-79
2022/12/03 03:51:20;;;;;;;12.50;8.30;;;;;;;1.05;100.00;99491.66;4984835;28;20199;-79
2022/12/03 03:53:50;;;;;;;13.17;8.60;;;;;;;1.00;100.00;99490.91;4992069;28;20254;-79
2022/12/03 03:56:22;;;;;;;14.33;8.87;;;;;;;1.06;100.00;99488.19;4985850;28;20231;-79
2022/12/03 03:58:50;;;;;;;15.30;8.97;;;;;;;1.04;100.00;99481.28;4988274;28;20210;-79
2022/12/03 04:01:18;;;;;;;13.63;9.13;;;;;;;1.04;100.00;99481.28;4987676;28;20202;-79
2022/12/03 04:03:47;;;;;;;14.60;8.70;;;;;;;1.14;100.00;99483.66;5008190;28;20655;-79
2022/12/03 04:06:16;;;;;;;12.83;8.07;;;;;;;1.14;100.00;99474.97;5020185;28;20258;-79
2022/12/03 04:08:44;;;;;;;13.50;8.47;;;;;;;1.10;100.00;99481.16;5070149;28;20286;-80
2022/12/03 04:14:14;;;;;;;13.93;8.40;;;;;;;1.10;100.00;99483.75;5025443;28;20219;-79
2022/12/03 04:16:42;;;;;;;15.83;9.27;;;;;;;1.11;100.00;99473.28;5032578;28;20197;-80
2022/12/03 04:19:11;;;;;;;16.27;9.30;;;;;;;1.03;100.00;99471.72;5062974;28;20234;-79
2022/12/03 04:24:25;;;;;;;16.03;9.73;;;;;;;1.07;100.00;99462.97;5112367;28;20323;-79
2022/12/03 04:29:42;;;;;;;15.07;9.73;;;;;;;1.21;100.00;99466.13;5050801;28;20232;-79
2022/12/03 04:37:45;;;;;;;14.50;9.33;;;;;;;1.05;100.00;99457.75;5049916;28;20208;-79
2022/12/03 04:42:56;;;;;;;13.90;9.17;;;;;;;1.14;100.00;99449.75;5047895;28;20193;-79
2022/12/03 04:45:26;;;;;;;16.47;10.17;;;;;;;1.02;100.00;99454.38;5047901;28;20235;-79
2022/12/03 04:47:56;;;;;;;15.13;9.03;;;;;;;0.99;100.00;99450.09;5115426;28;20195;-79
2022/12/03 04:50:24;;;;;;;18.23;10.17;;;;;;;0.99;100.00;99460.50;5115199;27;20697;-79
2022/12/03 04:52:53;;;;;;;15.50;10.00;;;;;;;1.09;100.00;99461.19;5112310;28;20239;-79
2022/12/03 04:55:22;;;;;;;16.87;10.47;;;;;;;0.96;100.00;99457.09;5115057;28;20191;-79
2022/12/03 04:57:50;;;;;;;16.00;9.93;;;;;;;0.98;100.00;99461.41;5113892;28;20187;-79
2022/12/03 05:00:21;;;;;;;19.07;11.43;;;;;;;1.02;100.00;99473.47;5115910;27;20195;-79
2022/12/03 05:02:52;;;;;;;17.67;10.43;;;;;;;1.07;100.00;99462.97;5077743;28;20222;-78
2022/12/03 05:05:23;;;;;;;17.47;10.73;;;;;;;1.12;100.00;99463.72;5115853;27;20248;-78
2022/12/03 05:07:52;;;;;;;17.90;11.00;;;;;;;1.15;100.00;99464.50;5113228;28;20232;-79
2022/12/03 05:10:21;;;;;;;15.40;9.93;;;;;;;1.02;100.00;99470.88;5111857;28;20210;-78
2022/12/03 05:12:50;;;;;;;18.37;10.93;;;;;;;1.07;100.00;99473.41;5112991;28;20218;-79
2022/12/03 05:15:19;;;;;;;16.97;11.20;;;;;;;1.11;100.00;99469.81;5111816;28;20252;-78
2022/12/03 05:17:47;;;;;;;19.00;11.07;;;;;;;1.13;100.00;99470.66;5115137;27;20662;-79
2022/12/03 05:23:03;;;;;;;17.63;10.53;;;;;;;1.30;100.00;99465.09;5116275;27;20222;-78
2022/12/03 05:25:31;;;;;;;19.53;12.37;;;;;;;1.24;100.00;99468.66;5114370;28;20198;-79
2022/12/03 05:27:59;;;;;;;18.00;11.37;;;;;;;1.26;100.00;99473.88;5115510;28;20291;-78
2022/12/03 05:30:28;;;;;;;18.07;11.23;;;;;;;1.19;100.00;99472.28;5115356;28;20233;-79
2022/12/03 05:32:57;;;;;;;19.90;11.20;;;;;;;1.04;100.00;99458.66;5115486;28;20192;-79
2022/12/03 05:35:28;;;;;;;19.77;11.70;;;;;;;1.16;100.00;99465.38;5114985;28;20243;-78
2022/12/03 05:37:56;;;;;;;20.30;11.93;;;;;;;1.02;100.00;99459.59;5112285;28;20653;-78
2022/12/03 05:40:25;;;;;;;21.00;12.40;;;;;;;1.11;100.00;99462.00;5111149;28;20203;-79
2022/12/03 05:42:52;;;;;;;22.57;13.07;;;;;;;1.17;100.00;99458.41;5114859;28;20204;-79
2022/12/03 05:45:23;;;;;;;20.80;12.03;;;;;;;1.05;100.00;99457.75;5109740;28;20183;-78
2022/12/03 05:47:55;;;;;;;17.73;11.50;;;;;;;1.04;100.00;99463.88;5115123;28;20282;-78
2022/12/03 05:50:25;;;;;;;21.13;12.10;;;;;;;1.03;100.00;99469.97;5114546;28;20246;-79
2022/12/03 05:52:59;;;;;;;22.37;12.23;;;;;;;0.98;100.00;99457.94;5076210;28;20207;-78
2022/12/03 05:55:28;;;;;;;19.13;12.60;;;;;;;1.12;100.00;99463.72;5116010;27;20283;-79
2022/12/03 05:57:57;;;;;;;20.30;12.30;;;;;;;1.09;100.00;99458.56;5113331;28;20244;-79
2022/12/03 06:00:28;;;;;;;19.50;11.70;;;;;;;1.18;100.00;99454.91;5113703;28;20599;-78
2022/12/03 06:02:57;;;;;;;25.67;14.13;;;;;;;0.99;100.00;99459.66;5112992;28;20191;-78
2022/12/03 06:05:26;;;;;;;21.37;12.97;;;;;;;1.11;100.00;99452.44;5111796;28;20222;-78
2022/12/03 06:07:54;;;;;;;25.80;14.30;;;;;;;1.11;100.00;99452.44;5114751;27;20191;-79
2022/12/03 06:10:25;;;;;;;31.37;18.13;;;;;;;1.04;100.00;99455.19;5109826;28;20225;-79
2022/12/03 06:12:53;;;;;;;22.37;13.37;;;;;;;1.15;100.00;99461.88;5111116;28;20198;-79
2022/12/03 06:15:22;;;;;;;25.63;14.50;;;;;;;1.16;100.00;99462.78;5111667;28;20198;-79
2022/12/03 06:17:51;;;;;;;19.73;12.40;;;;;;;0.97;100.00;99462.31;5112818;28;20739;-79
2022/12/03 06:20:22;;;;;;;22.50;13.17;;;;;;;1.18;100.00;99467.97;5114108;28;20199;-79
2022/12/03 06:22:50;;;;;;;36.50;20.23;;;;;;;1.04;100.00;99461.25;5114178;28;20304;-79
2022/12/03 06:25:19;;;;;;;24.50;14.63;;;;;;;1.12;100.00;99463.72;5087588;28;20630;-79
2022/12/03 06:27:50;;;;;;;23.37;14.13;;;;;;;1.33;100.00;99459.78;5114340;28;20191;-79
2022/12/03 06:30:18;;;;;;;26.60;14.73;;;;;;;1.15;100.00;99458.44;5111594;28;20222;-79
2022/12/03 06:32:46;;;;;;;27.73;15.07;;;;;;;1.21;100.00;99462.66;5108462;28;20203;-78
2022/12/03 06:35:15;;;;;;;27.53;15.17;;;;;;;1.33;100.00;99459.78;5114096;28;20203;-78
2022/12/03 06:37:43;;;;;;;26.53;15.07;;;;;;;1.46;100.00;99463.88;5114283;28;20247;-79
2022/12/03 06:40:15;;;;;;;29.40;16.47;;;;;;;1.23;100.00;99453.91;5111294;28;20326;-78
2022/12/03 06:42:44;;;;;;;28.40;15.53;;;;;;;1.33;100.00;99465.84;5114191;28;20247;-78
2022/12/03 06:45:14;;;;;;;30.03;18.03;;;;;;;1.21;100.00;99462.66;5113894;28;20190;-79
2022/12/03 06:47:43;;;;;;;28.87;17.10;;;;;;;1.29;100.00;99459.00;5111744;28;20623;-79
2022/12/03 06:50:12;;;;;;;30.13;16.87;;;;;;;1.24;100.00;99455.63;5112176;28;20211;-79
2022/12/03 06:52:41;;;;;;;27.93;16.57;;;;;;;1.22;100.00;99462.63;5110879;28;20231;-79
2022/12/03 06:55:10;;;;;;;30.23;17.47;;;;;;;1.26;100.00;99451.25;5111955;28;20244;-79
2022/12/03 06:57:40;;;;;;;26.33;15.50;;;;;;;1.32;100.00;99456.31;5109465;28;20319;-79
2022/12/03 07:00:09;;;;;;;29.17;16.80;;;;;;;1.32;100.00;99451.09;5110789;28;20195;-79
2022/12/03 07:02:40;;;;;;;27.90;16.40;;;;;;;1.25;100.00;99453.88;5078633;28;20195;-79
2022/12/03 07:05:09;;;;;;;31.33;17.33;;;;;;;1.39;100.00;99462.28;5110768;28;20194;-79
2022/12/03 07:07:37;;;;;;;28.43;16.07;;;;;;;1.35;100.00;99458.00;5108155;28;20496;-78
2022/12/03 07:10:07;;;;;;;25.60;15.03;;;;;;;1.44;100.00;99465.63;5114958;27;20292;-78
2022/12/03 07:12:36;;;;;;;28.07;16.40;;;;;;;1.30;100.00;99459.88;5113664;28;20195;-79
2022/12/03 07:15:05;;;;;;;26.83;15.30;;;;;;;1.19;100.00;99461.84;5115966;27;20641;-79
2022/12/03 07:17:34;;;;;;;28.10;16.50;;;;;;;1.35;100.00;99461.50;5107505;28;20192;-79
2022/12/03 07:20:04;;;;;;;28.93;16.57;;;;;;;1.19;100.00;99465.31;5113188;28;20195;-79
2022/12/03 07:22:35;;;;;;;28.27;15.67;;;;;;;1.25;100.00;99461.69;5113305;28;20194;-79
2022/12/03 07:25:03;;;;;;;29.40;16.07;;;;;;;1.30;100.00;99454.66;5108108;28;20194;-79
2022/12/03 07:27:32;;;;;;;28.17;16.97;;;;;;;1.27;100.00;99455.59;5046407;28;20682;-79
2022/12/03 07:30:02;;;;;;;28.73;17.17;;;;;;;1.28;100.00;99452.06;5046227;28;20220;-78
2022/12/03 07:32:31;;;;;;;30.80;16.30;;;;;;;1.24;100.00;99449.56;5042858;28;20193;-79
2022/12/03 07:35:00;;;;;;;31.97;16.57;;;;;;;1.24;100.00;99453.00;5050495;28;20649;-79
2022/12/03 07:37:32;;;;;;;29.43;16.80;;;;;;;1.31;100.00;99456.34;5046091;28;20197;-79
2022/12/03 07:40:00;;;;;;;31.90;18.00;;;;;;;1.25;100.00;99453.88;5045164;28;20205;-79
2022/12/03 07:42:29;;;;;;;29.83;17.87;;;;;;;1.18;100.00;99447.94;5046555;28;20255;-79
2022/12/03 07:44:58;;;;;;;31.23;17.53;;;;;;;1.20;100.00;99443.56;5054372;28;20206;-79
2022/12/03 07:47:27;;;;;;;29.17;16.33;;;;;;;1.22;100.00;99451.34;5111881;28;20723;-79
2022/12/03 07:49:55;;;;;;;34.73;19.00;;;;;;;1.17;100.00;99461.88;5112524;28;20326;-79
2022/12/03 07:52:24;;;;;;;41.43;22.43;;;;;;;1.18;100.00;99455.78;5112752;28;20202;-79
2022/12/03 07:54:54;;;;;;;113.37;48.13;;;;;;;1.30;100.00;99458.13;5109765;28;20184;-79
2022/12/03 07:57:22;;;;;;;88.77;39.13;;;;;;;1.18;100.00;99454.91;5074737;28;20198;-80
2022/12/03 07:59:51;;;;;;;38.53;20.43;;;;;;;1.15;100.00;99469.72;5110639;28;20211;-79
2022/12/03 08:02:19;;;;;;;36.60;18.73;;;;;;;1.25;100.00;99454.72;5107521;28;20735;-79
2022/12/03 08:04:48;;;;;;;33.67;17.90;;;;;;;1.09;100.00;99466.41;5114984;28;20202;-79
2022/12/03 08:07:18;;;;;;;35.00;18.77;;;;;;;1.32;100.00;99464.16;5117798;28;20223;-79
2022/12/03 08:09:48;;;;;;;31.83;18.33;;;;;;;1.10;100.00;99460.28;5110316;28;20195;-79
2022/12/03 08:12:23;;;;;;;31.90;20.63;;;;;;;1.36;100.00;99464.97;5109416;28;20273;-79
2022/12/03 08:14:51;;;;;;;33.73;19.03;;;;;;;1.41;100.00;99466.56;5110182;28;20198;-79
2022/12/03 08:17:20;;;;;;;41.10;27.03;;;;;;;1.48;100.00;99463.81;5107570;28;20283;-79
2022/12/03 08:19:49;;;;;;;32.13;19.17;;;;;;;1.31;100.00;99459.81;5107815;28;20195;-79
2022/12/03 08:22:17;;;;;;;40.00;25.30;;;;;;;1.35;100.00;99458.00;5115388;28;20255;-79
2022/12/03 08:24:46;;;;;;;29.93;17.40;;;;;;;1.33;100.00;99457.19;5115663;27;20187;-79
2022/12/03 08:27:19;;;;;;;33.97;20.33;;;;;;;1.37;100.00;99454.47;5114023;28;20191;-79
2022/12/03 08:29:47;;;;;;;37.73;22.20;;;;;;;1.24;100.00;99457.38;5106849;28;20195;-79
2022/12/03 08:32:16;;;;;;;46.47;27.07;;;;;;;1.43;100.00;99453.47;5118498;27;20673;-79
2022/12/03 08:34:45;;;;;;;33.63;18.67;;;;;;;1.47;100.00;99455.13;5111207;28;20195;-79
2022/12/03 08:37:18;;;;;;;30.77;17.60;;;;;;;1.40;100.00;99449.19;5115113;27;20259;-79
2022/12/03 08:39:48;;;;;;;32.93;18.93;;;;;;;1.38;100.00;99457.94;5116545;28;20199;-78
2022/12/03 08:45:38;;;;;;;38.10;20.13;;;;;;;1.30;100.00;99454.66;5116343;28;20187;-79
2022/12/03 08:48:31;;;;;;;33.80;19.23;;;;;;;1.36;100.00;99452.78;5084866;28;20226;-79
2022/12/03 08:51:04;;;;;;;31.67;19.00;;;;;;;1.20;100.00;99456.59;5111653;28;20214;-79
2022/12/03 08:53:36;;;;;;;32.33;17.27;;;;;;;1.25;100.00;99457.34;5113944;28;20335;-79
2022/12/03 08:56:12;;;;;;;35.83;20.27;;;;;;;1.34;100.00;99451.06;5114931;28;20248;-79
2022/12/03 08:58:44;;;;;;;36.13;20.07;;;;;;;1.24;100.00;99458.22;5116091;28;20226;-79
2022/12/03 09:01:37;;;;;;;35.40;20.30;;;;;;;1.35;100.00;99451.06;5113811;28;20222;-79
2022/12/03 09:04:21;;;;;;;35.03;20.50;;;;;;;1.30;100.00;99458.13;5115793;28;20190;-79
2022/12/03 09:06:50;;;;;;;36.03;20.53;;;;;;;1.28;100.00;99457.28;5067169;28;20289;-78
2022/12/03 09:09:18;;;;;;;38.77;20.97;;;;;;;1.48;100.00;99454.25;5063677;28;20204;-79
2022/12/03 09:11:47;;;;;;;34.60;19.47;;;;;;;1.31;100.00;99453.75;5069149;28;20216;-79
2022/12/03 09:14:21;;;;;;;33.47;18.77;;;;;;;1.26;100.00;99453.88;5067738;28;20200;-79
2022/12/03 09:16:54;;;;;;;40.13;20.80;;;;;;;1.25;100.00;99451.25;5070804;28;20197;-78
2022/12/03 09:19:23;;;;;;;38.90;19.37;;;;;;;1.32;100.00;99448.50;5072732;28;20291;-79
2022/12/03 09:21:53;;;;;;;41.30;23.23;;;;;;;1.34;100.00;99449.31;5065553;28;20254;-78
2022/12/03 09:24:22;;;;;;;46.93;23.23;;;;;;;1.34;100.00;99449.31;5072767;28;20189;-78
2022/12/03 09:26:50;;;;;;;38.73;20.70;;;;;;;1.38;100.00;99458.81;5062579;28;20200;-78
2022/12/03 09:29:20;;;;;;;42.63;23.03;;;;;;;1.60;100.00;99453.09;5069717;28;20249;-78
2022/12/03 09:31:49;;;;;;;39.10;19.70;;;;;;;1.37;100.00;99449.28;5096240;28;20279;-78
2022/12/03 09:34:18;;;;;;;31.53;17.30;;;;;;;1.47;100.00;99449.06;5106692;28;20250;-78
2022/12/03 09:36:46;;;;;;;33.47;19.27;;;;;;;1.37;100.00;99440.56;5115202;28;20195;-79
2022/12/03 09:39:14;;;;;;;33.03;19.20;;;;;;;1.36;100.00;99452.78;5112795;28;20194;-78
2022/12/03 09:41:45;;;;;;;60.87;33.90;;;;;;;1.32;100.00;99445.03;5077816;28;20508;-78
2022/12/03 09:44:13;;;;;;;46.07;26.93;;;;;;;1.30;100.00;99439.00;5115853;27;20199;-78
2022/12/03 09:46:48;;;;;;;34.67;19.00;;;;;;;1.44;100.00;99440.38;5111876;28;20321;-79
2022/12/03 09:49:19;;;;;;;34.37;19.97;;;;;;;1.62;100.00;99446.09;5070894;28;20200;-79
2022/12/03 09:51:47;;;;;;;33.33;18.93;;;;;;;1.54;100.00;99446.25;5066881;28;20265;-79
2022/12/03 09:54:23;;;;;;;36.80;20.40;;;;;;;1.48;100.00;99443.81;5073020;28;20204;-79
2022/12/03 09:56:57;;;;;;;35.50;18.87;;;;;;;1.46;100.00;99444.75;5071763;28;20348;-79
2022/12/03 09:59:28;;;;;;;34.83;19.87;;;;;;;1.46;100.00;99439.53;5071983;28;20280;-78
2022/12/03 10:01:58;;;;;;;41.87;21.57;;;;;;;1.58;100.00;99442.69;5066834;28;20258;-78
2022/12/03 10:04:28;;;;;;;36.90;19.63;;;;;;;1.64;100.00;99431.25;5063167;28;20212;-79
2022/12/03 10:06:58;;;;;;;35.73;19.07;;;;;;;1.72;100.00;99427.56;5072131;28;20235;-78
2022/12/03 10:09:28;;;;;;;37.33;22.03;;;;;;;1.58;100.00;99429.66;5062613;28;20277;-78
2022/12/03 10:11:59;;;;;;;37.30;19.23;;;;;;;1.44;100.00;99419.50;5070423;28;20227;-78
2022/12/03 10:14:29;;;;;;;38.37;20.63;;;;;;;1.42;100.00;99425.66;5101754;28;20199;-78
2022/12/03 10:16:59;;;;;;;36.27;19.60;;;;;;;1.41;100.00;99427.41;5114537;27;20217;-79
2022/12/03 10:19:31;;;;;;;36.80;19.37;;;;;;;1.53;100.00;99418.44;5116575;27;20195;-78
2022/12/03 10:21:59;;;;;;;34.17;18.50;;;;;;;1.64;100.00;99418.19;5114210;28;20191;-79
2022/12/03 10:24:30;;;;;;;33.87;18.37;;;;;;;1.59;100.00;99415.69;5111760;28;20203;-79
2022/12/03 10:27:00;;;;;;;37.10;19.00;;;;;;;1.67;100.00;99413.78;5111908;28;20191;-79
2022/12/03 10:29:31;;;;;;;35.83;20.10;;;;;;;1.60;100.00;99413.94;5114400;28;20198;-79
2022/12/03 10:32:05;;;;;;;36.47;20.17;;;;;;;1.59;100.00;99420.06;5111213;28;20215;-78
2022/12/03 10:34:36;;;;;;;35.93;20.30;;;;;;;1.58;100.00;99413.13;5079131;28;20190;-78
2022/12/03 10:37:13;;;;;;;39.43;21.47;;;;;;;1.60;100.00;99417.41;5115410;27;20202;-78
2022/12/03 10:39:59;;;;;;;38.47;18.70;;;;;;;1.57;100.00;99414.88;5111899;28;20195;-78
2022/12/03 10:42:30;;;;;;;37.30;19.77;;;;;;;1.49;100.00;99406.38;5111054;28;20222;-79
2022/12/03 10:45:23;;;;;;;36.17;19.63;;;;;;;1.62;100.00;99406.94;5112946;28;20195;-78
2022/12/03 10:48:11;;;;;;;44.83;21.57;;;;;;;1.56;100.00;99400.13;5099140;28;20222;-78
2022/12/03 10:50:48;;;;;;;33.47;19.33;;;;;;;1.52;100.00;99403.69;5078557;28;20183;-79
2022/12/03 10:53:17;;;;;;;38.17;20.17;;;;;;;1.63;100.00;99385.16;5116115;27;20251;-79
2022/12/03 10:55:47;;;;;;;33.97;19.30;;;;;;;1.51;100.00;99393.28;5068371;28;20238;-79
2022/12/03 10:58:22;;;;;;;37.57;19.87;;;;;;;1.56;100.00;99392.28;5038512;28;20766;-79
2022/12/03 11:00:53;;;;;;;37.30;19.67;;;;;;;1.70;100.00;99384.09;5066443;28;20223;-78
2022/12/03 11:03:25;;;;;;;37.73;19.97;;;;;;;1.60;100.00;99385.22;5068889;28;20372;-78
2022/12/03 11:05:55;;;;;;;37.53;20.17;;;;;;;1.58;100.00;99380.06;5065268;28;20235;-78
2022/12/03 11:08:32;;;;;;;35.23;19.27;;;;;;;1.68;100.00;99375.47;5068783;28;20599;-78
2022/12/03 11:11:08;;;;;;;42.00;21.47;;;;;;;1.59;100.00;99381.75;5068829;28;20196;-78
2022/12/03 11:13:52;;;;;;;34.63;18.30;;;;;;;1.68;100.00;99372.84;5084040;28;20219;-79
2022/12/03 11:17:00;;;;;;;44.30;25.23;;;;;;;1.64;100.00;99372.09;5110966;27;20191;-78
2022/12/03 11:19:47;;;;;;;40.90;22.40;;;;;;;1.71;100.00;99367.53;5086877;28;20248;-79
2022/12/03 11:22:41;;;;;;;40.07;22.57;;;;;;;1.77;100.00;99367.41;5111649;27;20199;-78
2022/12/03 11:25:36;;;;;;;37.63;19.40;;;;;;;1.77;100.00;99363.94;5096276;28;20614;-79
2022/12/03 11:28:51;;;;;;;42.37;21.50;;;;;;;1.76;100.00;99367.44;5110704;28;20203;-79
2022/12/03 11:31:38;;;;;;;39.87;20.57;;;;;;;1.88;100.00;99372.34;5050704;28;20239;-78
2022/12/03 11:34:52;;;;;;;37.70;20.50;;;;;;;1.78;100.00;99368.25;5111209;28;20215;-79
2022/12/03 11:37:31;;;;;;;37.97;20.20;;;;;;;1.72;100.00;99366.66;5113626;28;20225;-79
2022/12/03 11:40:31;;;;;;;34.37;18.97;;;;;;;1.68;100.00;99367.63;5094096;28;20198;-79
2022/12/03 11:43:13;;;;;;;32.87;18.70;;;;;;;1.70;100.00;99363.22;5115616;27;20191;-79
2022/12/03 11:45:43;;;;;;;34.97;17.77;;;;;;;1.85;100.00;99352.41;5111809;28;20240;-79
2022/12/03 11:48:13;;;;;;;34.80;18.90;;;;;;;1.85;100.00;99362.00;5112558;28;20183;-79
2022/12/03 11:50:50;;;;;;;35.27;18.53;;;;;;;1.82;100.00;99347.25;5111458;28;20230;-79
2022/12/03 11:53:23;;;;;;;38.07;18.67;;;;;;;1.91;100.00;99343.53;5112974;28;20213;-79
2022/12/03 11:56:05;;;;;;;32.67;17.97;;;;;;;1.92;100.00;99347.88;5111733;28;20195;-80
2022/12/03 11:58:37;;;;;;;36.73;19.80;;;;;;;1.83;100.00;99346.34;5112124;28;20308;-79
2022/12/03 12:01:08;;;;;;;33.60;18.20;;;;;;;1.93;100.00;99342.63;5113221;28;20273;-79